ADDS METAR Data INFO
IDs: Format: Raw Decoded Include TAF

Data at: 1050 UTC 24 Nov 2017

KGDJ 241035Z AUTO 00000KT 10SM CLR 04/01 A2997 RMK AO2 T00430013
KGDJ 241015Z AUTO 00000KT 10SM CLR 07/02 A2997 RMK AO2 T00720015
KGDJ 240955Z AUTO 00000KT 10SM CLR 07/01 A2998 RMK AO2 T00690011
KGDJ 240935Z AUTO 11003KT 10SM CLR 07/02 A2998 RMK AO2 T00700015
KGDJ 240915Z AUTO 10003KT 10SM CLR 07/02 A2998 RMK AO2 T00710016
KGDJ 240855Z AUTO 13003KT 10SM CLR 07/02 A2999 RMK AO2 T00730016
KGDJ 240835Z AUTO 12003KT 10SM CLR 06/01 A2999 RMK AO2 T00640009
KGDJ 240815Z AUTO 00000KT 10SM CLR 06/01 A3000 RMK AO2 T00580010
KGDJ 240755Z AUTO 00000KT 10SM CLR 06/01 A3001 RMK AO2 T00640007
KGDJ 240735Z AUTO 00000KT 10SM CLR 06/00 A3002 RMK AO2 T00640001
KGDJ 240715Z AUTO 00000KT 10SM CLR 07/01 A3002 RMK AO2 T00680009
KGDJ 240655Z AUTO 00000KT 10SM CLR 06/01 A3002 RMK AO2 T00620006
KGDJ 240635Z AUTO 00000KT 10SM CLR 08/02 A3003 RMK AO2 T00750015
KGDJ 240615Z AUTO 00000KT 10SM CLR 09/02 A3003 RMK AO2 T00870016
KGDJ 240555Z AUTO 00000KT 10SM CLR 10/02 A3004 RMK AO2 T00950017 10180 20092 402301010
KGDJ 240535Z AUTO 00000KT 10SM CLR 09/01 A3005 RMK AO2 T00930011
KGDJ 240515Z AUTO 00000KT 10SM CLR 10/02 A3005 RMK AO2 T01040016
KGDJ 240455Z AUTO 00000KT 10SM CLR 10/01 A3005 RMK AO2 T01040014
KGDJ 240435Z AUTO 00000KT 10SM CLR 11/01 A3006 RMK AO2 T01050011
KGDJ 240415Z AUTO 00000KT 10SM CLR 10/01 A3006 RMK AO2 T01040011
KGDJ 240355Z AUTO 00000KT 10SM CLR 13/01 A3006 RMK AO2 T01250013
KGDJ 240335Z AUTO 00000KT 10SM CLR 12/01 A3006 RMK AO2 T01200010
KGDJ 240315Z AUTO 00000KT 10SM CLR 13/01 A3006 RMK AO2 T01300010
KGDJ 240255Z AUTO 13003KT 10SM CLR 14/01 A3006 RMK AO2 T01400010
KGDJ 240235Z AUTO 13006KT 10SM CLR 14/01 A3006 RMK AO2 T01430010
KGDJ 240215Z AUTO 12005KT 10SM CLR 14/02 A3007 RMK AO2 T01410015
KGDJ 240155Z AUTO 13005KT 10SM CLR 15/01 A3006 RMK AO2 T01490011
KGDJ 240135Z AUTO 13005KT 10SM CLR 15/01 A3006 RMK AO2 T01510009
KGDJ 240115Z AUTO 13006KT 10SM CLR 16/01 A3006 RMK AO2 T01550005
KGDJ 240055Z AUTO 13005KT 10SM CLR 16/01 A3005 RMK AO2 T01590007
KGDJ 240035Z AUTO 13005KT 10SM CLR 17/01 A3005 RMK AO2 T01690008
KGDJ 240015Z AUTO 12005KT 10SM CLR 17/01 A3005 RMK AO2 T01680014
KGDJ 232355Z AUTO 12004KT 10SM CLR 18/01 A3005 RMK AO2 T01810012 10230 20181
KGDJ 232335Z AUTO 12004KT 10SM CLR 19/01 A3004 RMK AO2 T01890011
KGDJ 232315Z AUTO 13004KT 10SM CLR 20/01 A3004 RMK AO2 T02020007
KGDJ 232255Z AUTO 11003KT 10SM CLR 21/01 A3005 RMK AO2 T02110010
KGDJ 232235Z AUTO 15004KT 10SM CLR 22/00 A3005 RMK AO2 T02231004
KGDJ 232215Z AUTO 14003KT 10SM CLR 23/00 A3005 RMK AO2 T02261004
KGDJ 232155Z AUTO 16004KT 10SM CLR 23/M01 A3005 RMK AO2 T02271006
KGDJ 232135Z AUTO 00000KT 10SM CLR 23/M01 A3005 RMK AO2 T02291008
KGDJ 232115Z AUTO 17004KT 10SM CLR 23/M01 A3005 RMK AO2 T02281007
KGDJ 232055Z AUTO 20004KT 10SM CLR 23/M01 A3005 RMK AO2 T02281010
KGDJ 232035Z AUTO 24004KT 10SM CLR 23/M01 A3006 RMK AO2 T02271011
KGDJ 232015Z AUTO 00000KT 10SM CLR 23/M01 A3007 RMK AO2 T02251011
KGDJ 231955Z AUTO 19006KT 10SM CLR 23/M01 A3007 RMK AO2 T02251011
KGDJ 231935Z AUTO 19004KT 10SM CLR 22/M01 A3008 RMK AO2 T02221013
KGDJ 231915Z AUTO 25003KT 10SM CLR 22/M01 A3009 RMK AO2 T02191008
KGDJ 231855Z AUTO 22003KT 10SM CLR 22/M01 A3010 RMK AO2 T02151013
KGDJ 231835Z AUTO 17004KT 10SM CLR 21/M01 A3011 RMK AO2 T02061012
KGDJ 231815Z AUTO 18003KT 10SM CLR 20/M01 A3013 RMK AO2 T02001011
KGDJ 231755Z AUTO 16003KT 10SM CLR 20/M01 A3015 RMK AO2 T01961012 10196 21010
KGDJ 231735Z AUTO 25004KT 10SM CLR 19/00 A3017 RMK AO2 T01851004
KGDJ 231715Z AUTO 00000KT 10SM CLR 17/02 A3018 RMK AO2 T01690015
KGDJ 231655Z AUTO 00000KT 10SM CLR 15/02 A3019 RMK AO2 T01480022
KGDJ 231635Z AUTO 00000KT 10SM CLR 13/03 A3020 RMK AO2 T01330025
KGDJ 231615Z AUTO 00000KT 10SM CLR 12/02 A3020 RMK AO2 T01180016
KGDJ 231555Z AUTO 00000KT 10SM CLR 10/01 A3021 RMK AO2 T01020014
KGDJ 231535Z AUTO 00000KT 10SM CLR 09/01 A3021 RMK AO2 T00880012
KGDJ 231515Z AUTO 00000KT 10SM CLR 07/02 A3022 RMK AO2 T00710017
KGDJ 231455Z AUTO 00000KT 10SM CLR 05/02 A3021 RMK AO2 T00530015
KGDJ 231435Z AUTO 00000KT 10SM CLR 04/01 A3022 RMK AO2 T00390005
KGDJ 231415Z AUTO 00000KT 10SM CLR 02/00 A3022 RMK AO2 T00231002
KGDJ 231355Z AUTO 00000KT 10SM CLR 00/M01 A3022 RMK AO2 T00031013
KGDJ 231335Z AUTO 00000KT 10SM CLR 00/M02 A3021 RMK AO2 T10031021
KGDJ 231315Z AUTO 00000KT 10SM CLR 00/M02 A3021 RMK AO2 T10051023
KGDJ 231255Z AUTO 00000KT 10SM CLR 00/M02 A3021 RMK AO2 T10011021
KGDJ 231235Z AUTO 00000KT 10SM CLR 00/M01 A3021 RMK AO2 T00011015
KGDJ 231215Z AUTO 00000KT 10SM CLR M01/M03 A3022 RMK AO2 T10101029
KGDJ 231155Z AUTO 00000KT 10SM CLR M01/M03 A3022 RMK AO2 T10081028 10011 21009
KGDJ 231135Z AUTO 00000KT 10SM CLR M01/M03 A3022 RMK AO2 T10061031
KGDJ 231115Z AUTO 00000KT 10SM CLR 00/M03 A3022 RMK AO2 T00001033
KGDJ 231055Z AUTO 00000KT 10SM CLR M01/M03 A3022 RMK AO2 T10071032
KGDJ 231035Z AUTO 00000KT 10SM CLR 00/M03 A3022 RMK AO2 T10021035
KGDJ 231015Z AUTO 00000KT 10SM CLR 00/M03 A3022 RMK AO2 T00001033
KGDJ 230955Z AUTO 00000KT 10SM CLR 01/M03 A3022 RMK AO2 T00051030
KGDJ 230935Z AUTO 00000KT 10SM CLR 00/M03 A3023 RMK AO2 T10051032
KGDJ 230915Z AUTO 00000KT 10SM CLR 00/M03 A3023 RMK AO2 T00031032
KGDJ 230855Z AUTO 00000KT 10SM CLR 00/M03 A3024 RMK AO2 T10031034
KGDJ 230835Z AUTO 00000KT 10SM CLR 00/M03 A3024 RMK AO2 T00021033
KGDJ 230815Z AUTO 00000KT 10SM CLR 01/M03 A3025 RMK AO2 T00051035
KGDJ 230755Z AUTO 00000KT 10SM CLR 01/M03 A3025 RMK AO2 T00071032
KGDJ 230735Z AUTO 00000KT 10SM CLR 01/M04 A3026 RMK AO2 T00081037
KGDJ 230715Z AUTO 00000KT 10SM CLR 00/M03 A3027 RMK AO2 T00001034
KGDJ 230655Z AUTO 00000KT 5SM HZ CLR 00/M03 A3027 RMK AO2 T00041030
KGDJ 230635Z AUTO 00000KT 10SM CLR 01/M03 A3027 RMK AO2 T00091030
KGDJ 230615Z AUTO 00000KT 10SM CLR 01/M03 A3027 RMK AO2 T00061031
KGDJ 230555Z AUTO 00000KT 10SM CLR 01/M03 A3027 RMK AO2 T00111035 10102 20009 401410009
KGDJ 230535Z AUTO 00000KT 10SM CLR 01/M03 A3027 RMK AO2 T00091031
KGDJ 230515Z AUTO 00000KT 10SM CLR 02/M03 A3028 RMK AO2 T00181034
KGDJ 230455Z AUTO 00000KT 10SM CLR 02/M04 A3028 RMK AO2 T00201038
KGDJ 230435Z AUTO 00000KT 10SM CLR 03/M03 A3029 RMK AO2 T00261034
KGDJ 230415Z AUTO 00000KT 10SM CLR 02/M04 A3029 RMK AO2 T00231036
KGDJ 230355Z AUTO 00000KT 10SM CLR 03/M03 A3030 RMK AO2 T00281035
KGDJ 230335Z AUTO 24004KT 10SM CLR 02/M03 A3030 RMK AO2 T00231031
KGDJ 230315Z AUTO 00000KT 10SM CLR 03/M03 A3030 RMK AO2 T00271035
KGDJ 230255Z AUTO 00000KT 10SM CLR 04/M04 A3030 RMK AO2 T00431045
KGDJ 230235Z AUTO 00000KT 10SM CLR 05/M05 A3030 RMK AO2 T00451046
KGDJ 230215Z AUTO 00000KT 10SM CLR 05/M05 A3030 RMK AO2 T00541046
KGDJ 230155Z AUTO 00000KT 10SM CLR 05/M05 A3029 RMK AO2 T00541047
KGDJ 230135Z AUTO 25003KT 10SM CLR 05/M05 A3030 RMK AO2 T00541050
KGDJ 230115Z AUTO 00000KT 10SM CLR 07/M06 A3030 RMK AO2 T00651064
KGDJ 230055Z AUTO 28003KT 10SM CLR 08/M06 A3030 RMK AO2 T00811065
KGDJ 230035Z AUTO 00000KT 10SM CLR 09/M07 A3030 RMK AO2 T00921068
KGDJ 230015Z AUTO 00000KT 10SM CLR 10/M06 A3030 RMK AO2 T00961065
KGDJ 222355Z AUTO 32004KT 10SM CLR 10/M06 A3030 RMK AO2 T01041060 10141 20099
KGDJ 222335Z AUTO 32004KT 10SM CLR 11/M06 A3030 RMK AO2 T01081058
KGDJ 222315Z AUTO 33005KT 10SM CLR 12/M06 A3030 RMK AO2 T01161058
KGDJ 222255Z AUTO 33008KT 10SM CLR 13/M06 A3031 RMK AO2 T01271063